sensor_id;sensor_type;location;lat;lon;timestamp;P1;durP1;ratioP1;P2;durP2;ratioP2
60873;SDS011;46715;40.642;-7.920;2023-04-01T00:00:00;33.20;;;7.50;;
60873;SDS011;46715;40.642;-7.920;2023-04-01T00:02:00;34.77;;;7.00;;
60873;SDS011;46715;40.642;-7.920;2023-04-01T00:04:01;28.07;;;6.87;;
60873;SDS011;46715;40.642;-7.920;2023-04-01T00:06:02;28.60;;;7.67;;
60873;SDS011;46715;40.642;-7.920;2023-04-01T00:08:03;35.30;;;8.73;;
60873;SDS011;46715;40.642;-7.920;2023-04-01T00:10:06;31.55;;;7.25;;
60873;SDS011;46715;40.642;-7.920;2023-04-01T00:12:08;27.92;;;7.47;;
60873;SDS011;46715;40.642;-7.920;2023-04-01T00:14:09;37.17;;;7.57;;
60873;SDS011;46715;40.642;-7.920;2023-04-01T00:18:11;22.83;;;6.43;;
60873;SDS011;46715;40.642;-7.920;2023-04-01T00:20:13;25.42;;;7.55;;
60873;SDS011;46715;40.642;-7.920;2023-04-01T00:22:14;22.52;;;6.78;;
60873;SDS011;46715;40.642;-7.920;2023-04-01T00:24:15;27.00;;;8.02;;
60873;SDS011;46715;40.642;-7.920;2023-04-01T00:26:16;26.80;;;8.20;;
60873;SDS011;46715;40.642;-7.920;2023-04-01T00:28:21;28.33;;;6.72;;
60873;SDS011;46715;40.642;-7.920;2023-04-01T00:30:23;25.90;;;7.25;;
60873;SDS011;46715;40.642;-7.920;2023-04-01T00:32:25;29.55;;;7.93;;
60873;SDS011;46715;40.642;-7.920;2023-04-01T00:34:29;28.30;;;7.68;;
60873;SDS011;46715;40.642;-7.920;2023-04-01T00:36:30;20.33;;;6.17;;
60873;SDS011;46715;40.642;-7.920;2023-04-01T00:38:31;36.40;;;7.77;;
60873;SDS011;46715;40.642;-7.920;2023-04-01T00:40:35;31.97;;;6.90;;
60873;SDS011;46715;40.642;-7.920;2023-04-01T00:42:44;20.52;;;6.20;;
60873;SDS011;46715;40.642;-7.920;2023-04-01T00:44:51;30.08;;;7.60;;
60873;SDS011;46715;40.642;-7.920;2023-04-01T00:46:54;25.48;;;6.60;;
60873;SDS011;46715;40.642;-7.920;2023-04-01T00:48:56;26.70;;;6.53;;
60873;SDS011;46715;40.642;-7.920;2023-04-01T00:50:59;32.83;;;7.20;;
60873;SDS011;46715;40.642;-7.920;2023-04-01T00:53:04;19.38;;;6.40;;
60873;SDS011;46715;40.642;-7.920;2023-04-01T00:55:07;30.70;;;7.13;;
60873;SDS011;46715;40.642;-7.920;2023-04-01T00:57:12;25.50;;;6.88;;
60873;SDS011;46715;40.642;-7.920;2023-04-01T00:59:20;26.73;;;6.72;;
60873;SDS011;46715;40.642;-7.920;2023-04-01T01:01:25;30.42;;;8.00;;
60873;SDS011;46715;40.642;-7.920;2023-04-01T01:03:26;30.55;;;6.22;;
60873;SDS011;46715;40.642;-7.920;2023-04-01T01:06:29;28.33;;;6.60;;
60873;SDS011;46715;40.642;-7.920;2023-04-01T01:08:32;23.60;;;5.63;;
60873;SDS011;46715;40.642;-7.920;2023-04-01T01:10:38;22.77;;;6.47;;
60873;SDS011;46715;40.642;-7.920;2023-04-01T01:17:13;22.80;;;6.97;;
60873;SDS011;46715;40.642;-7.920;2023-04-01T01:24:08;27.05;;;8.00;;
60873;SDS011;46715;40.642;-7.920;2023-04-01T01:30:51;22.45;;;8.30;;
60873;SDS011;46715;40.642;-7.920;2023-04-01T01:33:25;39.90;;;9.00;;
60873;SDS011;46715;40.642;-7.920;2023-04-01T01:35:40;24.98;;;8.57;;
60873;SDS011;46715;40.642;-7.920;2023-04-01T01:37:52;25.42;;;8.65;;
60873;SDS011;46715;40.642;-7.920;2023-04-01T01:40:03;28.58;;;8.82;;
60873;SDS011;46715;40.642;-7.920;2023-04-01T01:42:08;32.85;;;9.05;;
60873;SDS011;46715;40.642;-7.920;2023-04-01T01:44:14;33.90;;;8.85;;
60873;SDS011;46715;40.642;-7.920;2023-04-01T01:46:21;24.13;;;6.95;;
60873;SDS011;46715;40.642;-7.920;2023-04-01T01:48:26;30.08;;;7.55;;
60873;SDS011;46715;40.642;-7.920;2023-04-01T01:50:29;27.63;;;8.20;;
60873;SDS011;46715;40.642;-7.920;2023-04-01T01:52:31;29.23;;;8.13;;
60873;SDS011;46715;40.642;-7.920;2023-04-01T01:54:32;26.10;;;8.17;;
60873;SDS011;46715;40.642;-7.920;2023-04-01T01:56:32;29.83;;;7.73;;
60873;SDS011;46715;40.642;-7.920;2023-04-01T01:58:42;34.33;;;8.60;;
60873;SDS011;46715;40.642;-7.920;2023-04-01T02:00:50;34.10;;;8.47;;
60873;SDS011;46715;40.642;-7.920;2023-04-01T02:02:55;35.30;;;8.02;;
60873;SDS011;46715;40.642;-7.920;2023-04-01T02:04:58;29.27;;;9.00;;
60873;SDS011;46715;40.642;-7.920;2023-04-01T02:07:02;27.20;;;7.93;;
60873;SDS011;46715;40.642;-7.920;2023-04-01T02:09:06;35.90;;;8.63;;
60873;SDS011;46715;40.642;-7.920;2023-04-01T02:11:13;34.60;;;8.32;;
60873;SDS011;46715;40.642;-7.920;2023-04-01T02:13:25;35.55;;;8.68;;
60873;SDS011;46715;40.642;-7.920;2023-04-01T02:15:48;33.78;;;8.80;;
60873;SDS011;46715;40.642;-7.920;2023-04-01T02:17:51;33.45;;;9.23;;
60873;SDS011;46715;40.642;-7.920;2023-04-01T02:19:54;33.47;;;7.82;;
60873;SDS011;46715;40.642;-7.920;2023-04-01T02:22:00;36.40;;;9.00;;
60873;SDS011;46715;40.642;-7.920;2023-04-01T02:24:04;55.17;;;8.95;;
60873;SDS011;46715;40.642;-7.920;2023-04-01T02:26:09;42.78;;;9.43;;
60873;SDS011;46715;40.642;-7.920;2023-04-01T02:28:13;41.20;;;11.43;;
60873;SDS011;46715;40.642;-7.920;2023-04-01T02:30:17;46.63;;;11.15;;
60873;SDS011;46715;40.642;-7.920;2023-04-01T02:32:19;46.45;;;11.90;;
60873;SDS011;46715;40.642;-7.920;2023-04-01T02:34:21;45.45;;;12.27;;
60873;SDS011;46715;40.642;-7.920;2023-04-01T02:36:24;44.95;;;12.02;;
60873;SDS011;46715;40.642;-7.920;2023-04-01T02:38:25;43.08;;;13.23;;
60873;SDS011;46715;40.642;-7.920;2023-04-01T02:40:26;47.13;;;12.47;;
60873;SDS011;46715;40.642;-7.920;2023-04-01T02:42:27;59.43;;;13.53;;
60873;SDS011;46715;40.642;-7.920;2023-04-01T02:44:28;65.30;;;14.17;;
60873;SDS011;46715;40.642;-7.920;2023-04-01T02:46:29;64.10;;;13.85;;
60873;SDS011;46715;40.642;-7.920;2023-04-01T02:48:30;47.70;;;12.03;;
60873;SDS011;46715;40.642;-7.920;2023-04-01T02:50:31;71.30;;;14.47;;
60873;SDS011;46715;40.642;-7.920;2023-04-01T02:52:32;65.47;;;11.43;;
60873;SDS011;46715;40.642;-7.920;2023-04-01T02:54:35;80.00;;;13.23;;
60873;SDS011;46715;40.642;-7.920;2023-04-01T02:56:36;81.53;;;12.77;;
60873;SDS011;46715;40.642;-7.920;2023-04-01T02:58:37;83.13;;;13.43;;
60873;SDS011;46715;40.642;-7.920;2023-04-01T03:00:37;87.47;;;14.50;;
60873;SDS011;46715;40.642;-7.920;2023-04-01T03:02:38;108.93;;;12.20;;
60873;SDS011;46715;40.642;-7.920;2023-04-01T03:04:39;97.23;;;13.87;;
60873;SDS011;46715;40.642;-7.920;2023-04-01T03:06:43;61.95;;;10.57;;
60873;SDS011;46715;40.642;-7.920;2023-04-01T03:08:44;70.53;;;10.13;;
60873;SDS011;46715;40.642;-7.920;2023-04-01T03:10:45;54.13;;;9.63;;
60873;SDS011;46715;40.642;-7.920;2023-04-01T03:12:46;54.43;;;9.67;;
60873;SDS011;46715;40.642;-7.920;2023-04-01T03:14:47;58.10;;;9.40;;
60873;SDS011;46715;40.642;-7.920;2023-04-01T03:18:50;46.10;;;7.75;;
60873;SDS011;46715;40.642;-7.920;2023-04-01T03:20:52;43.90;;;9.07;;
60873;SDS011;46715;40.642;-7.920;2023-04-01T03:22:53;66.00;;;8.77;;
60873;SDS011;46715;40.642;-7.920;2023-04-01T03:24:55;46.20;;;6.93;;
60873;SDS011;46715;40.642;-7.920;2023-04-01T03:26:56;68.63;;;9.45;;
60873;SDS011;46715;40.642;-7.920;2023-04-01T03:28:57;59.80;;;7.60;;
60873;SDS011;46715;40.642;-7.920;2023-04-01T03:30:58;64.47;;;8.75;;
60873;SDS011;46715;40.642;-7.920;2023-04-01T03:33:00;48.25;;;9.00;;
60873;SDS011;46715;40.642;-7.920;2023-04-01T03:35:05;62.33;;;9.00;;
60873;SDS011;46715;40.642;-7.920;2023-04-01T03:37:06;48.65;;;8.13;;
60873;SDS011;46715;40.642;-7.920;2023-04-01T03:39:08;38.05;;;7.70;;
60873;SDS011;46715;40.642;-7.920;2023-04-01T03:41:15;47.88;;;8.05;;
60873;SDS011;46715;40.642;-7.920;2023-04-01T03:43:19;78.25;;;8.95;;
60873;SDS011;46715;40.642;-7.920;2023-04-01T03:45:20;48.65;;;8.35;;
60873;SDS011;46715;40.642;-7.920;2023-04-01T03:47:21;58.10;;;8.60;;
60873;SDS011;46715;40.642;-7.920;2023-04-01T03:49:22;50.93;;;8.30;;
60873;SDS011;46715;40.642;-7.920;2023-04-01T03:51:23;92.50;;;8.75;;
60873;SDS011;46715;40.642;-7.920;2023-04-01T03:53:24;58.30;;;8.60;;
60873;SDS011;46715;40.642;-7.920;2023-04-01T03:55:29;53.65;;;7.75;;
60873;SDS011;46715;40.642;-7.920;2023-04-01T03:57:32;59.13;;;7.65;;
60873;SDS011;46715;40.642;-7.920;2023-04-01T03:59:40;37.35;;;7.90;;
60873;SDS011;46715;40.642;-7.920;2023-04-01T04:01:41;73.73;;;7.83;;
60873;SDS011;46715;40.642;-7.920;2023-04-01T04:03:42;38.38;;;6.38;;
60873;SDS011;46715;40.642;-7.920;2023-04-01T04:07:54;67.45;;;7.57;;
60873;SDS011;46715;40.642;-7.920;2023-04-01T04:09:55;44.08;;;8.40;;
60873;SDS011;46715;40.642;-7.920;2023-04-01T04:11:56;77.33;;;8.43;;
60873;SDS011;46715;40.642;-7.920;2023-04-01T04:13:57;50.63;;;7.82;;
60873;SDS011;46715;40.642;-7.920;2023-04-01T04:15:58;48.73;;;7.90;;
60873;SDS011;46715;40.642;-7.920;2023-04-01T04:17:59;68.15;;;7.97;;
60873;SDS011;46715;40.642;-7.920;2023-04-01T04:20:00;69.60;;;7.88;;
60873;SDS011;46715;40.642;-7.920;2023-04-01T04:22:02;67.65;;;8.75;;
60873;SDS011;46715;40.642;-7.920;2023-04-01T04:24:03;94.97;;;8.68;;
60873;SDS011;46715;40.642;-7.920;2023-04-01T04:26:24;86.90;;;9.20;;
60873;SDS011;46715;40.642;-7.920;2023-04-01T04:28:31;84.60;;;9.05;;
60873;SDS011;46715;40.642;-7.920;2023-04-01T04:30:33;97.82;;;10.30;;
60873;SDS011;46715;40.642;-7.920;2023-04-01T04:32:35;78.43;;;8.38;;
60873;SDS011;46715;40.642;-7.920;2023-04-01T04:34:36;85.30;;;9.38;;
60873;SDS011;46715;40.642;-7.920;2023-04-01T04:36:37;61.92;;;9.30;;
60873;SDS011;46715;40.642;-7.920;2023-04-01T04:38:38;72.90;;;9.47;;
60873;SDS011;46715;40.642;-7.920;2023-04-01T04:40:39;68.30;;;9.20;;
60873;SDS011;46715;40.642;-7.920;2023-04-01T04:42:41;87.03;;;8.73;;
60873;SDS011;46715;40.642;-7.920;2023-04-01T04:44:46;44.85;;;7.35;;
60873;SDS011;46715;40.642;-7.920;2023-04-01T04:46:47;75.68;;;9.00;;
60873;SDS011;46715;40.642;-7.920;2023-04-01T04:48:49;84.10;;;9.55;;
60873;SDS011;46715;40.642;-7.920;2023-04-01T04:50:50;37.13;;;6.50;;
60873;SDS011;46715;40.642;-7.920;2023-04-01T04:52:56;109.60;;;10.00;;
60873;SDS011;46715;40.642;-7.920;2023-04-01T04:54:57;83.47;;;10.00;;
60873;SDS011;46715;40.642;-7.920;2023-04-01T04:56:58;100.47;;;10.53;;
60873;SDS011;46715;40.642;-7.920;2023-04-01T04:59:01;114.57;;;10.90;;
60873;SDS011;46715;40.642;-7.920;2023-04-01T05:01:15;102.63;;;8.68;;
60873;SDS011;46715;40.642;-7.920;2023-04-01T05:03:17;104.88;;;9.23;;
60873;SDS011;46715;40.642;-7.920;2023-04-01T05:05:18;79.03;;;9.35;;
60873;SDS011;46715;40.642;-7.920;2023-04-01T05:09:21;139.45;;;10.43;;
60873;SDS011;46715;40.642;-7.920;2023-04-01T05:11:22;114.67;;;9.23;;
60873;SDS011;46715;40.642;-7.920;2023-04-01T05:13:24;86.57;;;11.68;;
60873;SDS011;46715;40.642;-7.920;2023-04-01T05:15:25;87.95;;;11.00;;
60873;SDS011;46715;40.642;-7.920;2023-04-01T05:17:26;107.97;;;12.13;;
60873;SDS011;46715;40.642;-7.920;2023-04-01T05:19:27;129.20;;;11.93;;
60873;SDS011;46715;40.642;-7.920;2023-04-01T05:21:28;151.40;;;12.13;;
60873;SDS011;46715;40.642;-7.920;2023-04-01T05:23:31;124.65;;;12.02;;
60873;SDS011;46715;40.642;-7.920;2023-04-01T05:25:33;83.13;;;9.35;;
60873;SDS011;46715;40.642;-7.920;2023-04-01T05:27:34;127.65;;;12.50;;
60873;SDS011;46715;40.642;-7.920;2023-04-01T05:29:35;111.80;;;11.70;;
60873;SDS011;46715;40.642;-7.920;2023-04-01T05:31:40;104.18;;;13.75;;
60873;SDS011;46715;40.642;-7.920;2023-04-01T05:33:41;93.93;;;11.23;;
60873;SDS011;46715;40.642;-7.920;2023-04-01T05:35:42;103.23;;;12.63;;
60873;SDS011;46715;40.642;-7.920;2023-04-01T05:37:47;59.40;;;10.52;;
60873;SDS011;46715;40.642;-7.920;2023-04-01T05:39:47;103.77;;;10.67;;
60873;SDS011;46715;40.642;-7.920;2023-04-01T05:41:48;107.67;;;12.83;;
60873;SDS011;46715;40.642;-7.920;2023-04-01T05:43:49;88.90;;;11.13;;
60873;SDS011;46715;40.642;-7.920;2023-04-01T05:46:08;46.95;;;7.57;;
60873;SDS011;46715;40.642;-7.920;2023-04-01T05:48:25;57.80;;;8.43;;
60873;SDS011;46715;40.642;-7.920;2023-04-01T05:50:28;78.00;;;11.50;;
60873;SDS011;46715;40.642;-7.920;2023-04-01T05:52:29;38.60;;;7.30;;
60873;SDS011;46715;40.642;-7.920;2023-04-01T05:54:36;28.23;;;6.43;;
60873;SDS011;46715;40.642;-7.920;2023-04-01T05:56:37;43.87;;;8.60;;
60873;SDS011;46715;40.642;-7.920;2023-04-01T05:58:38;32.77;;;6.53;;
60873;SDS011;46715;40.642;-7.920;2023-04-01T06:00:39;37.58;;;7.03;;
60873;SDS011;46715;40.642;-7.920;2023-04-01T06:02:52;32.33;;;6.60;;
60873;SDS011;46715;40.642;-7.920;2023-04-01T06:04:54;36.28;;;6.70;;
60873;SDS011;46715;40.642;-7.920;2023-04-01T06:07:23;36.97;;;7.40;;
60873;SDS011;46715;40.642;-7.920;2023-04-01T06:09:29;46.83;;;7.60;;
60873;SDS011;46715;40.642;-7.920;2023-04-01T06:11:44;57.90;;;8.80;;
60873;SDS011;46715;40.642;-7.920;2023-04-01T06:14:03;69.60;;;8.10;;
60873;SDS011;46715;40.642;-7.920;2023-04-01T06:21:16;118.40;;;13.10;;
60873;SDS011;46715;40.642;-7.920;2023-04-01T06:28:12;160.13;;;14.40;;
60873;SDS011;46715;40.642;-7.920;2023-04-01T06:44:14;131.93;;;16.85;;
60873;SDS011;46715;40.642;-7.920;2023-04-01T06:46:58;83.55;;;12.98;;
60873;SDS011;46715;40.642;-7.920;2023-04-01T06:49:53;107.22;;;15.30;;
60873;SDS011;46715;40.642;-7.920;2023-04-01T06:54:49;79.07;;;13.18;;
60873;SDS011;46715;40.642;-7.920;2023-04-01T06:59:32;71.95;;;12.60;;
60873;SDS011;46715;40.642;-7.920;2023-04-01T07:01:39;109.22;;;15.52;;
60873;SDS011;46715;40.642;-7.920;2023-04-01T07:06:06;86.90;;;14.40;;
60873;SDS011;46715;40.642;-7.920;2023-04-01T07:08:23;37.35;;;10.25;;
60873;SDS011;46715;40.642;-7.920;2023-04-01T07:14:01;63.40;;;12.55;;
60873;SDS011;46715;40.642;-7.920;2023-04-01T07:16:07;46.05;;;11.65;;
60873;SDS011;46715;40.642;-7.920;2023-04-01T07:18:29;54.72;;;12.18;;
60873;SDS011;46715;40.642;-7.920;2023-04-01T07:20:36;46.97;;;11.00;;
60873;SDS011;46715;40.642;-7.920;2023-04-01T07:22:39;45.28;;;11.23;;
60873;SDS011;46715;40.642;-7.920;2023-04-01T07:24:55;52.17;;;11.52;;
60873;SDS011;46715;40.642;-7.920;2023-04-01T07:26:58;55.17;;;10.57;;
60873;SDS011;46715;40.642;-7.920;2023-04-01T07:29:05;59.65;;;12.45;;
60873;SDS011;46715;40.642;-7.920;2023-04-01T07:33:39;70.70;;;13.77;;
60873;SDS011;46715;40.642;-7.920;2023-04-01T07:35:55;60.43;;;12.63;;
60873;SDS011;46715;40.642;-7.920;2023-04-01T07:42:57;44.13;;;10.63;;
60873;SDS011;46715;40.642;-7.920;2023-04-01T07:49:48;36.00;;;10.15;;
60873;SDS011;46715;40.642;-7.920;2023-04-01T07:52:16;34.67;;;9.60;;
60873;SDS011;46715;40.642;-7.920;2023-04-01T07:55:20;34.20;;;9.80;;
60873;SDS011;46715;40.642;-7.920;2023-04-01T07:57:35;27.98;;;9.60;;
60873;SDS011;46715;40.642;-7.920;2023-04-01T08:00:10;33.55;;;10.00;;
60873;SDS011;46715;40.642;-7.920;2023-04-01T08:05:17;30.40;;;9.00;;
60873;SDS011;46715;40.642;-7.920;2023-04-01T08:07:37;35.58;;;10.75;;
60873;SDS011;46715;40.642;-7.920;2023-04-01T08:10:12;35.20;;;9.52;;
60873;SDS011;46715;40.642;-7.920;2023-04-01T08:20:11;26.60;;;7.80;;
60873;SDS011;46715;40.642;-7.920;2023-04-01T08:25:02;25.25;;;7.38;;
60873;SDS011;46715;40.642;-7.920;2023-04-01T08:32:08;25.20;;;7.50;;
60873;SDS011;46715;40.642;-7.920;2023-04-01T08:34:22;18.02;;;5.93;;
60873;SDS011;46715;40.642;-7.920;2023-04-01T08:36:40;24.60;;;6.95;;
60873;SDS011;46715;40.642;-7.920;2023-04-01T08:38:55;28.70;;;6.72;;
60873;SDS011;46715;40.642;-7.920;2023-04-01T08:45:53;26.98;;;6.80;;
60873;SDS011;46715;40.642;-7.920;2023-04-01T08:48:12;21.30;;;6.30;;
60873;SDS011;46715;40.642;-7.920;2023-04-01T08:57:45;22.63;;;7.50;;
60873;SDS011;46715;40.642;-7.920;2023-04-01T09:05:10;20.80;;;6.93;;
60873;SDS011;46715;40.642;-7.920;2023-04-01T09:10:59;15.52;;;5.90;;
60873;SDS011;46715;40.642;-7.920;2023-04-01T09:30:10;13.23;;;5.28;;
60873;SDS011;46715;40.642;-7.920;2023-04-01T09:34:54;17.52;;;4.60;;
60873;SDS011;46715;40.642;-7.920;2023-04-01T09:37:18;15.10;;;4.40;;
60873;SDS011;46715;40.642;-7.920;2023-04-01T09:41:57;12.70;;;3.92;;
60873;SDS011;46715;40.642;-7.920;2023-04-01T09:44:48;17.02;;;4.95;;
60873;SDS011;46715;40.642;-7.920;2023-04-01T09:53:59;15.13;;;5.43;;
60873;SDS011;46715;40.642;-7.920;2023-04-01T10:04:17;13.32;;;4.40;;
60873;SDS011;46715;40.642;-7.920;2023-04-01T10:33:15;6.40;;;2.78;;
60873;SDS011;46715;40.642;-7.920;2023-04-01T10:51:12;8.80;;;2.70;;
60873;SDS011;46715;40.642;-7.920;2023-04-01T11:00:52;5.93;;;1.95;;
60873;SDS011;46715;40.642;-7.920;2023-04-01T11:19:50;12.07;;;6.32;;
60873;SDS011;46715;40.642;-7.920;2023-04-01T11:25:09;7.13;;;3.03;;
60873;SDS011;46715;40.642;-7.920;2023-04-01T11:29:58;7.22;;;2.72;;
60873;SDS011;46715;40.642;-7.920;2023-04-01T11:34:35;6.53;;;2.85;;
60873;SDS011;46715;40.642;-7.920;2023-04-01T11:37:02;6.70;;;2.78;;
60873;SDS011;46715;40.642;-7.920;2023-04-01T11:39:34;6.28;;;2.47;;
60873;SDS011;46715;40.642;-7.920;2023-04-01T11:42:28;7.15;;;2.67;;
60873;SDS011;46715;40.642;-7.920;2023-04-01T11:45:22;5.20;;;2.42;;
60873;SDS011;46715;40.642;-7.920;2023-04-01T11:50:01;5.10;;;2.75;;
60873;SDS011;46715;40.642;-7.920;2023-04-01T12:07:05;5.15;;;1.85;;
60873;SDS011;46715;40.642;-7.920;2023-04-01T12:11:38;2.40;;;1.33;;
60873;SDS011;46715;40.642;-7.920;2023-04-01T12:13:53;3.25;;;1.25;;
60873;SDS011;46715;40.642;-7.920;2023-04-01T12:16:00;3.22;;;1.48;;
60873;SDS011;46715;40.642;-7.920;2023-04-01T12:20:36;2.42;;;1.42;;
60873;SDS011;46715;40.642;-7.920;2023-04-01T12:25:07;3.45;;;1.73;;
60873;SDS011;46715;40.642;-7.920;2023-04-01T12:27:45;2.65;;;1.10;;
60873;SDS011;46715;40.642;-7.920;2023-04-01T12:30:10;4.68;;;1.30;;
60873;SDS011;46715;40.642;-7.920;2023-04-01T12:35:23;2.60;;;1.65;;
60873;SDS011;46715;40.642;-7.920;2023-04-01T12:39:57;3.38;;;1.38;;
60873;SDS011;46715;40.642;-7.920;2023-04-01T12:49:27;2.33;;;1.30;;
60873;SDS011;46715;40.642;-7.920;2023-04-01T12:54:17;1.38;;;1.10;;
60873;SDS011;46715;40.642;-7.920;2023-04-01T13:13:09;5.32;;;3.20;;
60873;SDS011;46715;40.642;-7.920;2023-04-01T13:15:38;2.65;;;1.50;;
60873;SDS011;46715;40.642;-7.920;2023-04-01T13:20:14;3.22;;;2.08;;
60873;SDS011;46715;40.642;-7.920;2023-04-01T13:29:18;4.80;;;2.70;;
60873;SDS011;46715;40.642;-7.920;2023-04-01T13:40:29;2.95;;;1.52;;
60873;SDS011;46715;40.642;-7.920;2023-04-01T13:42:43;2.60;;;1.60;;
60873;SDS011;46715;40.642;-7.920;2023-04-01T13:50:23;3.58;;;1.60;;
60873;SDS011;46715;40.642;-7.920;2023-04-01T13:55:10;2.17;;;1.70;;
60873;SDS011;46715;40.642;-7.920;2023-04-01T13:59:57;3.55;;;2.63;;
60873;SDS011;46715;40.642;-7.920;2023-04-01T14:16:52;2.55;;;1.65;;
60873;SDS011;46715;40.642;-7.920;2023-04-01T14:20:05;2.10;;;1.25;;
60873;SDS011;46715;40.642;-7.920;2023-04-01T14:29:43;1.58;;;1.02;;
60873;SDS011;46715;40.642;-7.920;2023-04-01T14:36:47;1.55;;;1.20;;
60873;SDS011;46715;40.642;-7.920;2023-04-01T14:43:47;2.30;;;1.20;;
60873;SDS011;46715;40.642;-7.920;2023-04-01T14:48:52;1.70;;;1.05;;
60873;SDS011;46715;40.642;-7.920;2023-04-01T14:53:41;2.97;;;0.93;;
60873;SDS011;46715;40.642;-7.920;2023-04-01T15:00:14;3.55;;;1.35;;
60873;SDS011;46715;40.642;-7.920;2023-04-01T15:12:38;2.10;;;1.60;;
60873;SDS011;46715;40.642;-7.920;2023-04-01T15:14:53;21.20;;;2.20;;
60873;SDS011;46715;40.642;-7.920;2023-04-01T15:24:07;2.95;;;2.28;;
60873;SDS011;46715;40.642;-7.920;2023-04-01T15:28:23;3.75;;;2.88;;
60873;SDS011;46715;40.642;-7.920;2023-04-01T15:45:31;11.73;;;3.85;;
60873;SDS011;46715;40.642;-7.920;2023-04-01T15:47:41;4.55;;;3.33;;
60873;SDS011;46715;40.642;-7.920;2023-04-01T15:49:45;4.57;;;3.60;;
60873;SDS011;46715;40.642;-7.920;2023-04-01T15:52:22;3.38;;;3.08;;
60873;SDS011;46715;40.642;-7.920;2023-04-01T16:01:57;4.03;;;3.60;;
60873;SDS011;46715;40.642;-7.920;2023-04-01T16:04:17;4.65;;;3.72;;
60873;SDS011;46715;40.642;-7.920;2023-04-01T16:09:02;3.80;;;3.20;;
60873;SDS011;46715;40.642;-7.920;2023-04-01T16:13:16;4.65;;;3.22;;
60873;SDS011;46715;40.642;-7.920;2023-04-01T16:15:37;6.53;;;3.53;;
60873;SDS011;46715;40.642;-7.920;2023-04-01T16:17:56;5.93;;;3.80;;
60873;SDS011;46715;40.642;-7.920;2023-04-01T16:20:17;4.28;;;3.60;;
60873;SDS011;46715;40.642;-7.920;2023-04-01T16:24:59;4.68;;;3.42;;
60873;SDS011;46715;40.642;-7.920;2023-04-01T16:36:27;4.30;;;3.50;;
60873;SDS011;46715;40.642;-7.920;2023-04-01T16:41:31;4.30;;;3.88;;
60873;SDS011;46715;40.642;-7.920;2023-04-01T16:43:44;5.80;;;4.88;;
60873;SDS011;46715;40.642;-7.920;2023-04-01T16:45:57;6.47;;;5.35;;
60873;SDS011;46715;40.642;-7.920;2023-04-01T16:48:15;6.20;;;4.60;;
60873;SDS011;46715;40.642;-7.920;2023-04-01T16:50:44;4.97;;;3.65;;
60873;SDS011;46715;40.642;-7.920;2023-04-01T16:55:19;4.55;;;2.90;;
60873;SDS011;46715;40.642;-7.920;2023-04-01T16:59:29;5.45;;;3.65;;
60873;SDS011;46715;40.642;-7.920;2023-04-01T17:01:55;4.60;;;4.13;;
60873;SDS011;46715;40.642;-7.920;2023-04-01T17:06:31;3.97;;;3.22;;
60873;SDS011;46715;40.642;-7.920;2023-04-01T17:10:56;5.18;;;3.38;;
60873;SDS011;46715;40.642;-7.920;2023-04-01T17:15:51;5.63;;;4.05;;
60873;SDS011;46715;40.642;-7.920;2023-04-01T17:18:06;6.43;;;4.15;;
60873;SDS011;46715;40.642;-7.920;2023-04-01T17:31:06;6.97;;;4.43;;
60873;SDS011;46715;40.642;-7.920;2023-04-01T17:35:52;8.30;;;6.03;;
60873;SDS011;46715;40.642;-7.920;2023-04-01T17:42:54;7.38;;;6.07;;
60873;SDS011;46715;40.642;-7.920;2023-04-01T17:49:28;8.07;;;5.82;;
60873;SDS011;46715;40.642;-7.920;2023-04-01T17:51:33;7.47;;;5.63;;
60873;SDS011;46715;40.642;-7.920;2023-04-01T17:56:55;11.68;;;6.97;;
60873;SDS011;46715;40.642;-7.920;2023-04-01T18:02:21;8.70;;;5.95;;
60873;SDS011;46715;40.642;-7.920;2023-04-01T18:13:16;15.65;;;9.10;;
60873;SDS011;46715;40.642;-7.920;2023-04-01T18:15:45;16.65;;;8.88;;
60873;SDS011;46715;40.642;-7.920;2023-04-01T18:25:21;15.80;;;11.45;;
60873;SDS011;46715;40.642;-7.920;2023-04-01T18:30:01;18.83;;;10.77;;
60873;SDS011;46715;40.642;-7.920;2023-04-01T18:50:18;12.48;;;8.32;;
60873;SDS011;46715;40.642;-7.920;2023-04-01T18:57:20;10.23;;;6.15;;
60873;SDS011;46715;40.642;-7.920;2023-04-01T18:59:23;7.43;;;4.80;;
60873;SDS011;46715;40.642;-7.920;2023-04-01T19:02:16;7.43;;;4.32;;
60873;SDS011;46715;40.642;-7.920;2023-04-01T19:06:30;7.80;;;5.35;;
60873;SDS011;46715;40.642;-7.920;2023-04-01T19:08:38;8.07;;;6.20;;
60873;SDS011;46715;40.642;-7.920;2023-04-01T19:13:01;10.45;;;5.55;;
60873;SDS011;46715;40.642;-7.920;2023-04-01T19:34:22;8.38;;;6.57;;
60873;SDS011;46715;40.642;-7.920;2023-04-01T19:38:43;11.50;;;7.18;;
60873;SDS011;46715;40.642;-7.920;2023-04-01T19:40:54;10.50;;;8.05;;
60873;SDS011;46715;40.642;-7.920;2023-04-01T19:43:16;11.88;;;8.18;;
60873;SDS011;46715;40.642;-7.920;2023-04-01T19:45:40;11.18;;;7.93;;
60873;SDS011;46715;40.642;-7.920;2023-04-01T19:47:55;11.85;;;8.30;;
60873;SDS011;46715;40.642;-7.920;2023-04-01T19:50:01;12.32;;;8.15;;
60873;SDS011;46715;40.642;-7.920;2023-04-01T19:52:26;12.52;;;8.95;;
60873;SDS011;46715;40.642;-7.920;2023-04-01T19:57:21;12.10;;;9.70;;
60873;SDS011;46715;40.642;-7.920;2023-04-01T19:59:40;11.50;;;9.35;;
60873;SDS011;46715;40.642;-7.920;2023-04-01T20:04:24;12.25;;;9.00;;
60873;SDS011;46715;40.642;-7.920;2023-04-01T20:06:55;9.82;;;8.43;;
60873;SDS011;46715;40.642;-7.920;2023-04-01T20:16:07;8.93;;;5.95;;
60873;SDS011;46715;40.642;-7.920;2023-04-01T20:18:25;7.38;;;5.30;;
60873;SDS011;46715;40.642;-7.920;2023-04-01T20:20:34;8.00;;;4.93;;
60873;SDS011;46715;40.642;-7.920;2023-04-01T20:24:44;7.68;;;5.43;;
60873;SDS011;46715;40.642;-7.920;2023-04-01T20:26:49;12.65;;;5.32;;
60873;SDS011;46715;40.642;-7.920;2023-04-01T20:33:37;8.23;;;6.45;;
60873;SDS011;46715;40.642;-7.920;2023-04-01T20:35:50;9.30;;;6.72;;
60873;SDS011;46715;40.642;-7.920;2023-04-01T20:59:28;26.90;;;20.30;;
60873;SDS011;46715;40.642;-7.920;2023-04-01T21:05:51;16.73;;;13.88;;
60873;SDS011;46715;40.642;-7.920;2023-04-01T21:08:16;22.08;;;16.00;;
60873;SDS011;46715;40.642;-7.920;2023-04-01T21:19:47;22.13;;;17.92;;
60873;SDS011;46715;40.642;-7.920;2023-04-01T21:26:19;18.55;;;14.52;;
60873;SDS011;46715;40.642;-7.920;2023-04-01T21:28:32;18.27;;;14.77;;
60873;SDS011;46715;40.642;-7.920;2023-04-01T21:40:36;18.95;;;13.30;;
60873;SDS011;46715;40.642;-7.920;2023-04-01T21:45:27;13.38;;;9.88;;
60873;SDS011;46715;40.642;-7.920;2023-04-01T21:54:50;10.23;;;7.55;;
60873;SDS011;46715;40.642;-7.920;2023-04-01T21:57:26;12.73;;;7.40;;
60873;SDS011;46715;40.642;-7.920;2023-04-01T22:00:37;10.50;;;6.78;;
60873;SDS011;46715;40.642;-7.920;2023-04-01T22:02:40;13.48;;;6.95;;
60873;SDS011;46715;40.642;-7.920;2023-04-01T22:07:25;10.15;;;6.38;;
60873;SDS011;46715;40.642;-7.920;2023-04-01T22:09:46;10.68;;;6.10;;
60873;SDS011;46715;40.642;-7.920;2023-04-01T22:12:07;9.82;;;5.53;;
60873;SDS011;46715;40.642;-7.920;2023-04-01T22:14:21;7.68;;;5.35;;
60873;SDS011;46715;40.642;-7.920;2023-04-01T22:16:47;9.93;;;5.22;;
60873;SDS011;46715;40.642;-7.920;2023-04-01T22:19:06;10.63;;;6.40;;
60873;SDS011;46715;40.642;-7.920;2023-04-01T22:21:18;8.38;;;5.97;;
60873;SDS011;46715;40.642;-7.920;2023-04-01T22:23:31;9.32;;;6.57;;
60873;SDS011;46715;40.642;-7.920;2023-04-01T22:25:56;9.48;;;6.68;;
60873;SDS011;46715;40.642;-7.920;2023-04-01T22:28:07;9.40;;;6.90;;
60873;SDS011;46715;40.642;-7.920;2023-04-01T22:30:29;12.73;;;7.97;;
60873;SDS011;46715;40.642;-7.920;2023-04-01T22:34:49;18.15;;;9.10;;
60873;SDS011;46715;40.642;-7.920;2023-04-01T22:43:36;15.07;;;10.90;;
60873;SDS011;46715;40.642;-7.920;2023-04-01T22:48:09;15.93;;;11.55;;